createdAt,value
2023-05-07T18:00:14.832Z,7.05
2023-05-07T18:02:42.090Z,6.38
2023-05-07T18:05:09.499Z,6.50
2023-05-07T18:07:36.582Z,7.68
2023-05-07T18:10:03.552Z,7.93
2023-05-07T18:12:30.369Z,8.23
2023-05-07T18:14:57.216Z,6.75
2023-05-07T18:17:24.292Z,7.75
2023-05-07T18:19:54.563Z,7.90
2023-05-07T18:22:21.680Z,8.15
2023-05-07T18:24:49.660Z,8.07
2023-05-07T18:27:16.404Z,9.18
2023-05-07T18:29:43.295Z,7.78
2023-05-07T18:32:10.201Z,8.70
2023-05-07T18:34:37.018Z,6.60
2023-05-07T18:37:03.841Z,7.72
2023-05-07T18:39:31.961Z,6.50
2023-05-07T18:42:01.722Z,8.02
2023-05-07T18:44:28.525Z,9.13
2023-05-07T18:46:55.290Z,7.90
2023-05-07T18:49:22.143Z,8.80
2023-05-07T18:51:49.707Z,8.48
2023-05-07T18:54:16.518Z,8.00
2023-05-07T18:56:43.291Z,7.63
2023-05-07T18:59:10.268Z,7.60
2023-05-07T19:01:37.077Z,12.68
2023-05-07T19:04:04.026Z,10.98
2023-05-07T19:06:33.387Z,11.20
2023-05-07T19:09:00.667Z,12.23
2023-05-07T19:11:27.617Z,12.52
2023-05-07T19:13:56.969Z,13.23
2023-05-07T19:16:23.912Z,12.20
2023-05-07T19:18:51.364Z,11.88
2023-05-07T19:21:18.228Z,11.07
2023-05-07T19:23:46.169Z,11.82
2023-05-07T19:26:12.993Z,11.20
2023-05-07T19:28:45.273Z,12.23
2023-05-07T19:31:22.504Z,11.75
2023-05-07T19:33:49.602Z,12.00
2023-05-07T19:36:17.364Z,13.48
2023-05-07T19:38:45.114Z,11.73
2023-05-07T19:41:12.411Z,10.25
2023-05-07T19:43:39.890Z,11.70
2023-05-07T19:46:06.911Z,11.85
2023-05-07T19:48:33.706Z,13.70
2023-05-07T19:51:00.803Z,13.68
2023-05-07T19:53:30.067Z,13.70
2023-05-07T19:56:07.851Z,12.77
2023-05-07T19:58:35.949Z,13.02
2023-05-07T20:01:07.174Z,15.10
2023-05-07T20:03:34.364Z,15.63
2023-05-07T20:06:02.268Z,14.02
